sensor_id;sensor_type;location;lat;lon;timestamp;temperature;humidity
31379;DHT22;61664;48.112;11.662;2023-07-20T00:00:06;25.90;38.70
31379;DHT22;61664;48.112;11.662;2023-07-20T00:02:34;25.80;38.70
31379;DHT22;61664;48.112;11.662;2023-07-20T00:05:01;25.80;38.80
31379;DHT22;61664;48.112;11.662;2023-07-20T00:07:28;25.80;38.80
31379;DHT22;61664;48.112;11.662;2023-07-20T00:09:55;25.70;38.80
31379;DHT22;61664;48.112;11.662;2023-07-20T00:12:22;25.70;38.80
31379;DHT22;61664;48.112;11.662;2023-07-20T00:14:49;25.70;39.50
31379;DHT22;61664;48.112;11.662;2023-07-20T00:17:16;25.60;38.90
31379;DHT22;61664;48.112;11.662;2023-07-20T00:19:43;25.60;39.00
31379;DHT22;61664;48.112;11.662;2023-07-20T00:22:10;25.50;39.00
31379;DHT22;61664;48.112;11.662;2023-07-20T00:24:37;25.50;39.10
31379;DHT22;61664;48.112;11.662;2023-07-20T00:27:04;25.40;39.10
31379;DHT22;61664;48.112;11.662;2023-07-20T00:29:31;25.40;39.30
31379;DHT22;61664;48.112;11.662;2023-07-20T00:31:58;25.40;39.80
31379;DHT22;61664;48.112;11.662;2023-07-20T00:34:25;25.30;39.30
31379;DHT22;61664;48.112;11.662;2023-07-20T00:36:52;25.30;39.40
31379;DHT22;61664;48.112;11.662;2023-07-20T00:39:19;25.30;39.60
31379;DHT22;61664;48.112;11.662;2023-07-20T00:41:46;25.20;39.60
31379;DHT22;61664;48.112;11.662;2023-07-20T00:44:13;25.20;39.60
31379;DHT22;61664;48.112;11.662;2023-07-20T00:46:40;25.20;39.70
31379;DHT22;61664;48.112;11.662;2023-07-20T00:49:08;25.20;39.70
31379;DHT22;61664;48.112;11.662;2023-07-20T00:51:35;25.20;39.80
31379;DHT22;61664;48.112;11.662;2023-07-20T00:54:02;25.20;39.80
31379;DHT22;61664;48.112;11.662;2023-07-20T00:56:29;25.20;39.90
31379;DHT22;61664;48.112;11.662;2023-07-20T00:58:56;25.10;39.90
31379;DHT22;61664;48.112;11.662;2023-07-20T01:01:23;25.10;39.90
31379;DHT22;61664;48.112;11.662;2023-07-20T01:03:50;25.10;40.00
31379;DHT22;61664;48.112;11.662;2023-07-20T01:09:22;25.20;40.10
31379;DHT22;61664;48.112;11.662;2023-07-20T01:12:09;25.10;40.00
31379;DHT22;61664;48.112;11.662;2023-07-20T01:14:40;25.10;40.20
31379;DHT22;61664;48.112;11.662;2023-07-20T01:17:08;25.10;40.10
31379;DHT22;61664;48.112;11.662;2023-07-20T01:19:35;25.00;40.20
31379;DHT22;61664;48.112;11.662;2023-07-20T01:25:11;25.00;40.60
31379;DHT22;61664;48.112;11.662;2023-07-20T01:28:25;25.00;40.60
31379;DHT22;61664;48.112;11.662;2023-07-20T01:31:26;25.00;40.40
31379;DHT22;61664;48.112;11.662;2023-07-20T01:34:05;25.00;40.70
31379;DHT22;61664;48.112;11.662;2023-07-20T01:36:36;25.00;40.60
31379;DHT22;61664;48.112;11.662;2023-07-20T01:39:05;25.00;40.70
31379;DHT22;61664;48.112;11.662;2023-07-20T01:41:33;25.00;40.80
31379;DHT22;61664;48.112;11.662;2023-07-20T01:44:00;25.00;40.80
31379;DHT22;61664;48.112;11.662;2023-07-20T01:46:29;25.00;40.80
31379;DHT22;61664;48.112;11.662;2023-07-20T01:48:57;25.00;40.80
31379;DHT22;61664;48.112;11.662;2023-07-20T01:51:24;25.00;40.90
31379;DHT22;61664;48.112;11.662;2023-07-20T01:53:51;25.00;41.10
31379;DHT22;61664;48.112;11.662;2023-07-20T01:56:18;25.00;41.20
31379;DHT22;61664;48.112;11.662;2023-07-20T01:58:45;25.00;41.30
31379;DHT22;61664;48.112;11.662;2023-07-20T02:01:12;25.00;41.30
31379;DHT22;61664;48.112;11.662;2023-07-20T02:03:39;25.00;41.30
31379;DHT22;61664;48.112;11.662;2023-07-20T02:06:06;25.00;41.30
31379;DHT22;61664;48.112;11.662;2023-07-20T02:08:33;24.90;41.40
31379;DHT22;61664;48.112;11.662;2023-07-20T02:11:00;24.90;41.40
31379;DHT22;61664;48.112;11.662;2023-07-20T02:13:27;24.90;41.50
31379;DHT22;61664;48.112;11.662;2023-07-20T02:15:54;24.80;41.40
31379;DHT22;61664;48.112;11.662;2023-07-20T02:18:21;24.80;41.50
31379;DHT22;61664;48.112;11.662;2023-07-20T02:20:48;24.80;41.60
31379;DHT22;61664;48.112;11.662;2023-07-20T02:23:15;24.70;41.70
31379;DHT22;61664;48.112;11.662;2023-07-20T02:25:42;24.70;41.80
31379;DHT22;61664;48.112;11.662;2023-07-20T02:28:08;24.60;41.80
31379;DHT22;61664;48.112;11.662;2023-07-20T02:30:38;24.60;41.90
31379;DHT22;61664;48.112;11.662;2023-07-20T02:33:07;24.50;42.00
31379;DHT22;61664;48.112;11.662;2023-07-20T02:35:34;24.40;41.90
31379;DHT22;61664;48.112;11.662;2023-07-20T02:38:01;24.40;42.00
31379;DHT22;61664;48.112;11.662;2023-07-20T02:40:28;24.40;42.20
31379;DHT22;61664;48.112;11.662;2023-07-20T02:42:55;24.40;42.40
31379;DHT22;61664;48.112;11.662;2023-07-20T02:45:22;24.40;42.40
31379;DHT22;61664;48.112;11.662;2023-07-20T02:47:49;24.30;42.50
31379;DHT22;61664;48.112;11.662;2023-07-20T02:50:16;24.30;42.50
31379;DHT22;61664;48.112;11.662;2023-07-20T02:52:43;24.30;42.40
31379;DHT22;61664;48.112;11.662;2023-07-20T02:55:10;24.20;42.20
31379;DHT22;61664;48.112;11.662;2023-07-20T02:57:37;24.20;42.20
31379;DHT22;61664;48.112;11.662;2023-07-20T03:00:04;24.20;42.20
31379;DHT22;61664;48.112;11.662;2023-07-20T03:02:34;24.20;42.20
31379;DHT22;61664;48.112;11.662;2023-07-20T03:05:01;24.20;41.50
31379;DHT22;61664;48.112;11.662;2023-07-20T03:07:32;24.20;43.00
31379;DHT22;61664;48.112;11.662;2023-07-20T03:09:59;24.20;41.60
31379;DHT22;61664;48.112;11.662;2023-07-20T03:12:26;23.90;43.90
31379;DHT22;61664;48.112;11.662;2023-07-20T03:14:53;23.70;43.90
31379;DHT22;61664;48.112;11.662;2023-07-20T03:17:20;23.40;44.70
31379;DHT22;61664;48.112;11.662;2023-07-20T03:19:47;23.00;45.20
31379;DHT22;61664;48.112;11.662;2023-07-20T03:22:14;22.70;46.00
31379;DHT22;61664;48.112;11.662;2023-07-20T03:24:41;22.30;46.90
31379;DHT22;61664;48.112;11.662;2023-07-20T03:27:08;22.00;48.20
31379;DHT22;61664;48.112;11.662;2023-07-20T03:29:35;21.80;51.10
31379;DHT22;61664;48.112;11.662;2023-07-20T03:32:02;21.60;52.90
31379;DHT22;61664;48.112;11.662;2023-07-20T03:34:29;21.50;54.70
31379;DHT22;61664;48.112;11.662;2023-07-20T03:36:56;21.40;55.80
31379;DHT22;61664;48.112;11.662;2023-07-20T03:39:23;21.30;57.30
31379;DHT22;61664;48.112;11.662;2023-07-20T03:41:50;21.20;58.80
31379;DHT22;61664;48.112;11.662;2023-07-20T03:44:17;21.00;59.60
31379;DHT22;61664;48.112;11.662;2023-07-20T03:46:44;20.90;60.30
31379;DHT22;61664;48.112;11.662;2023-07-20T03:49:11;20.80;61.30
31379;DHT22;61664;48.112;11.662;2023-07-20T03:51:38;20.70;62.10
31379;DHT22;61664;48.112;11.662;2023-07-20T03:54:05;20.60;63.70
31379;DHT22;61664;48.112;11.662;2023-07-20T03:56:32;20.50;65.10
31379;DHT22;61664;48.112;11.662;2023-07-20T03:59:02;20.40;66.30
31379;DHT22;61664;48.112;11.662;2023-07-20T04:01:29;20.40;66.90
31379;DHT22;61664;48.112;11.662;2023-07-20T04:03:56;20.30;67.70
31379;DHT22;61664;48.112;11.662;2023-07-20T04:06:24;20.30;68.40
31379;DHT22;61664;48.112;11.662;2023-07-20T04:08:51;20.30;69.00
31379;DHT22;61664;48.112;11.662;2023-07-20T04:11:18;20.30;69.30
31379;DHT22;61664;48.112;11.662;2023-07-20T04:13:45;20.20;69.30
31379;DHT22;61664;48.112;11.662;2023-07-20T04:16:12;20.20;69.60
31379;DHT22;61664;48.112;11.662;2023-07-20T04:18:39;20.20;69.60
31379;DHT22;61664;48.112;11.662;2023-07-20T04:21:08;20.20;70.10
31379;DHT22;61664;48.112;11.662;2023-07-20T04:23:35;20.20;70.50
31379;DHT22;61664;48.112;11.662;2023-07-20T04:26:03;20.20;70.80
31379;DHT22;61664;48.112;11.662;2023-07-20T04:28:30;20.20;71.00
31379;DHT22;61664;48.112;11.662;2023-07-20T04:31:12;20.20;71.20
31379;DHT22;61664;48.112;11.662;2023-07-20T04:33:40;20.20;69.80
31379;DHT22;61664;48.112;11.662;2023-07-20T04:36:07;20.20;71.50
31379;DHT22;61664;48.112;11.662;2023-07-20T04:38:35;20.20;71.70
31379;DHT22;61664;48.112;11.662;2023-07-20T04:41:02;20.20;71.90
31379;DHT22;61664;48.112;11.662;2023-07-20T04:43:29;20.30;72.00
31379;DHT22;61664;48.112;11.662;2023-07-20T04:45:56;20.30;71.90
31379;DHT22;61664;48.112;11.662;2023-07-20T04:48:23;20.30;71.90
31379;DHT22;61664;48.112;11.662;2023-07-20T04:50:50;20.30;71.90
31379;DHT22;61664;48.112;11.662;2023-07-20T04:53:17;20.40;72.30
31379;DHT22;61664;48.112;11.662;2023-07-20T04:55:48;20.40;72.50
31379;DHT22;61664;48.112;11.662;2023-07-20T04:58:21;20.40;71.90
31379;DHT22;61664;48.112;11.662;2023-07-20T05:00:49;20.50;72.90
31379;DHT22;61664;48.112;11.662;2023-07-20T05:03:17;20.50;72.70
31379;DHT22;61664;48.112;11.662;2023-07-20T05:05:45;20.60;72.60
31379;DHT22;61664;48.112;11.662;2023-07-20T05:08:16;20.70;72.70
31379;DHT22;61664;48.112;11.662;2023-07-20T05:10:43;20.70;72.50
31379;DHT22;61664;48.112;11.662;2023-07-20T05:13:10;20.80;72.30
31379;DHT22;61664;48.112;11.662;2023-07-20T05:15:37;20.90;72.10
31379;DHT22;61664;48.112;11.662;2023-07-20T05:18:04;20.90;72.30
31379;DHT22;61664;48.112;11.662;2023-07-20T05:20:32;21.00;71.60
31379;DHT22;61664;48.112;11.662;2023-07-20T05:23:00;21.00;71.20
31379;DHT22;61664;48.112;11.662;2023-07-20T05:25:27;21.10;71.00
31379;DHT22;61664;48.112;11.662;2023-07-20T05:27:57;21.10;70.70
31379;DHT22;61664;48.112;11.662;2023-07-20T05:30:24;21.20;70.40
31379;DHT22;61664;48.112;11.662;2023-07-20T05:32:51;21.20;70.10
31379;DHT22;61664;48.112;11.662;2023-07-20T05:35:21;21.30;69.70
31379;DHT22;61664;48.112;11.662;2023-07-20T05:37:49;21.30;69.40
31379;DHT22;61664;48.112;11.662;2023-07-20T05:40:16;21.30;69.20
31379;DHT22;61664;48.112;11.662;2023-07-20T05:42:48;21.30;69.00
31379;DHT22;61664;48.112;11.662;2023-07-20T05:45:18;21.40;68.70
31379;DHT22;61664;48.112;11.662;2023-07-20T05:47:46;21.40;68.30
31379;DHT22;61664;48.112;11.662;2023-07-20T05:50:13;21.40;68.20
31379;DHT22;61664;48.112;11.662;2023-07-20T05:52:40;21.50;68.00
31379;DHT22;61664;48.112;11.662;2023-07-20T05:55:07;21.50;67.80
31379;DHT22;61664;48.112;11.662;2023-07-20T05:57:35;21.60;67.90
31379;DHT22;61664;48.112;11.662;2023-07-20T06:00:02;21.60;67.80
31379;DHT22;61664;48.112;11.662;2023-07-20T06:02:30;21.60;67.40
31379;DHT22;61664;48.112;11.662;2023-07-20T06:04:59;21.70;67.30
31379;DHT22;61664;48.112;11.662;2023-07-20T06:07:27;21.70;67.20
31379;DHT22;61664;48.112;11.662;2023-07-20T06:09:53;21.80;66.80
31379;DHT22;61664;48.112;11.662;2023-07-20T06:12:20;21.80;66.50
31379;DHT22;61664;48.112;11.662;2023-07-20T06:14:47;21.90;65.90
31379;DHT22;61664;48.112;11.662;2023-07-20T06:17:14;21.90;64.80
31379;DHT22;61664;48.112;11.662;2023-07-20T06:19:41;22.00;63.90
31379;DHT22;61664;48.112;11.662;2023-07-20T06:22:09;22.00;63.80
31379;DHT22;61664;48.112;11.662;2023-07-20T06:24:36;22.00;64.00
31379;DHT22;61664;48.112;11.662;2023-07-20T06:27:03;22.00;63.60
31379;DHT22;61664;48.112;11.662;2023-07-20T06:29:32;22.10;63.70
31379;DHT22;61664;48.112;11.662;2023-07-20T06:32:01;22.20;63.80
31379;DHT22;61664;48.112;11.662;2023-07-20T06:34:33;22.30;63.80
31379;DHT22;61664;48.112;11.662;2023-07-20T06:37:04;22.30;65.00
31379;DHT22;61664;48.112;11.662;2023-07-20T06:39:31;22.40;65.60
31379;DHT22;61664;48.112;11.662;2023-07-20T06:42:01;22.50;65.50
31379;DHT22;61664;48.112;11.662;2023-07-20T06:44:28;22.50;65.50
31379;DHT22;61664;48.112;11.662;2023-07-20T06:46:55;22.60;64.60
31379;DHT22;61664;48.112;11.662;2023-07-20T06:49:26;22.60;63.40
31379;DHT22;61664;48.112;11.662;2023-07-20T06:51:54;22.60;60.30
31379;DHT22;61664;48.112;11.662;2023-07-20T06:54:21;22.60;61.00
31379;DHT22;61664;48.112;11.662;2023-07-20T06:56:50;22.60;61.20
31379;DHT22;61664;48.112;11.662;2023-07-20T06:59:37;22.50;62.00
31379;DHT22;61664;48.112;11.662;2023-07-20T07:02:07;22.60;62.90
31379;DHT22;61664;48.112;11.662;2023-07-20T07:04:40;22.60;63.60
31379;DHT22;61664;48.112;11.662;2023-07-20T07:07:08;22.70;63.80
31379;DHT22;61664;48.112;11.662;2023-07-20T07:09:36;22.70;63.00
31379;DHT22;61664;48.112;11.662;2023-07-20T07:12:04;22.80;62.50
31379;DHT22;61664;48.112;11.662;2023-07-20T07:14:31;22.90;62.00
31379;DHT22;61664;48.112;11.662;2023-07-20T07:16:59;23.00;61.40
31379;DHT22;61664;48.112;11.662;2023-07-20T07:19:31;23.00;61.30
31379;DHT22;61664;48.112;11.662;2023-07-20T07:21:58;23.00;61.40
31379;DHT22;61664;48.112;11.662;2023-07-20T07:24:26;23.00;61.30
31379;DHT22;61664;48.112;11.662;2023-07-20T07:27:00;23.10;60.50
31379;DHT22;61664;48.112;11.662;2023-07-20T07:29:28;23.10;60.80
31379;DHT22;61664;48.112;11.662;2023-07-20T07:31:55;23.10;61.00
31379;DHT22;61664;48.112;11.662;2023-07-20T07:34:22;23.20;60.70
31379;DHT22;61664;48.112;11.662;2023-07-20T07:36:49;23.30;60.70
31379;DHT22;61664;48.112;11.662;2023-07-20T07:39:17;23.30;61.80
31379;DHT22;61664;48.112;11.662;2023-07-20T07:41:47;23.40;61.80
31379;DHT22;61664;48.112;11.662;2023-07-20T07:44:15;23.60;62.60
31379;DHT22;61664;48.112;11.662;2023-07-20T07:46:42;23.70;61.10
31379;DHT22;61664;48.112;11.662;2023-07-20T07:49:08;23.90;60.30
31379;DHT22;61664;48.112;11.662;2023-07-20T07:51:35;24.00;60.00
31379;DHT22;61664;48.112;11.662;2023-07-20T07:54:02;24.10;59.40
31379;DHT22;61664;48.112;11.662;2023-07-20T07:56:29;24.30;59.20
31379;DHT22;61664;48.112;11.662;2023-07-20T07:58:57;24.30;58.20
31379;DHT22;61664;48.112;11.662;2023-07-20T08:01:23;24.40;57.10
31379;DHT22;61664;48.112;11.662;2023-07-20T08:03:51;24.40;57.10
31379;DHT22;61664;48.112;11.662;2023-07-20T08:06:18;24.50;56.90
31379;DHT22;61664;48.112;11.662;2023-07-20T08:08:45;24.50;57.40
31379;DHT22;61664;48.112;11.662;2023-07-20T08:11:12;24.50;57.60
31379;DHT22;61664;48.112;11.662;2023-07-20T08:13:41;24.60;57.50
31379;DHT22;61664;48.112;11.662;2023-07-20T08:16:08;24.60;55.70
31379;DHT22;61664;48.112;11.662;2023-07-20T08:18:35;24.70;56.50
31379;DHT22;61664;48.112;11.662;2023-07-20T08:21:02;24.70;56.40
31379;DHT22;61664;48.112;11.662;2023-07-20T08:23:29;24.60;56.00
31379;DHT22;61664;48.112;11.662;2023-07-20T08:25:56;24.70;56.60
31379;DHT22;61664;48.112;11.662;2023-07-20T08:28:24;24.60;56.20
31379;DHT22;61664;48.112;11.662;2023-07-20T08:30:53;24.60;56.90
31379;DHT22;61664;48.112;11.662;2023-07-20T08:33:20;24.70;56.40
31379;DHT22;61664;48.112;11.662;2023-07-20T08:35:47;24.80;55.90
31379;DHT22;61664;48.112;11.662;2023-07-20T08:38:14;24.80;56.00
31379;DHT22;61664;48.112;11.662;2023-07-20T08:40:43;24.90;55.60
31379;DHT22;61664;48.112;11.662;2023-07-20T08:43:11;25.00;54.70
31379;DHT22;61664;48.112;11.662;2023-07-20T08:45:40;25.20;54.90
31379;DHT22;61664;48.112;11.662;2023-07-20T08:48:08;25.30;54.00
31379;DHT22;61664;48.112;11.662;2023-07-20T08:50:36;25.30;53.80
31379;DHT22;61664;48.112;11.662;2023-07-20T08:53:04;25.40;53.60
31379;DHT22;61664;48.112;11.662;2023-07-20T08:55:33;25.40;53.20
31379;DHT22;61664;48.112;11.662;2023-07-20T08:58:02;25.40;51.80
31379;DHT22;61664;48.112;11.662;2023-07-20T09:00:31;25.50;51.10
31379;DHT22;61664;48.112;11.662;2023-07-20T09:02:58;25.50;51.70
31379;DHT22;61664;48.112;11.662;2023-07-20T09:05:29;25.50;52.00
31379;DHT22;61664;48.112;11.662;2023-07-20T09:07:59;25.60;52.80
31379;DHT22;61664;48.112;11.662;2023-07-20T09:10:26;25.80;52.60
31379;DHT22;61664;48.112;11.662;2023-07-20T09:12:53;26.00;52.40
31379;DHT22;61664;48.112;11.662;2023-07-20T09:15:22;26.10;52.00
31379;DHT22;61664;48.112;11.662;2023-07-20T09:17:50;26.30;51.40
31379;DHT22;61664;48.112;11.662;2023-07-20T09:20:20;26.60;51.30
31379;DHT22;61664;48.112;11.662;2023-07-20T09:22:50;26.80;52.90
31379;DHT22;61664;48.112;11.662;2023-07-20T09:25:19;26.80;51.20
31379;DHT22;61664;48.112;11.662;2023-07-20T09:27:49;27.00;52.70
31379;DHT22;61664;48.112;11.662;2023-07-20T09:30:24;27.10;52.20
31379;DHT22;61664;48.112;11.662;2023-07-20T09:32:58;27.30;49.70
31379;DHT22;61664;48.112;11.662;2023-07-20T09:35:26;27.60;50.60
31379;DHT22;61664;48.112;11.662;2023-07-20T09:38:07;27.90;51.40
31379;DHT22;61664;48.112;11.662;2023-07-20T09:40:38;28.20;51.20
31379;DHT22;61664;48.112;11.662;2023-07-20T09:43:10;28.40;50.20
31379;DHT22;61664;48.112;11.662;2023-07-20T09:45:41;28.60;49.50
31379;DHT22;61664;48.112;11.662;2023-07-20T09:48:12;28.60;48.40
31379;DHT22;61664;48.112;11.662;2023-07-20T09:50:48;28.70;48.20
31379;DHT22;61664;48.112;11.662;2023-07-20T09:53:17;28.60;47.60
31379;DHT22;61664;48.112;11.662;2023-07-20T09:55:45;28.50;47.80
31379;DHT22;61664;48.112;11.662;2023-07-20T09:58:16;28.50;48.00
31379;DHT22;61664;48.112;11.662;2023-07-20T10:00:45;28.40;47.60
31379;DHT22;61664;48.112;11.662;2023-07-20T10:03:28;28.30;47.20
31379;DHT22;61664;48.112;11.662;2023-07-20T10:06:06;28.10;45.20
31379;DHT22;61664;48.112;11.662;2023-07-20T10:08:38;28.00;45.90
31379;DHT22;61664;48.112;11.662;2023-07-20T10:11:10;28.00;46.10
31379;DHT22;61664;48.112;11.662;2023-07-20T10:13:41;28.00;47.60
31379;DHT22;61664;48.112;11.662;2023-07-20T10:16:16;28.00;47.90
31379;DHT22;61664;48.112;11.662;2023-07-20T10:21:42;28.10;47.70
31379;DHT22;61664;48.112;11.662;2023-07-20T10:24:25;28.30;47.20
31379;DHT22;61664;48.112;11.662;2023-07-20T10:26:55;28.60;47.70
31379;DHT22;61664;48.112;11.662;2023-07-20T10:29:23;28.70;45.90
31379;DHT22;61664;48.112;11.662;2023-07-20T10:31:51;28.90;46.70
31379;DHT22;61664;48.112;11.662;2023-07-20T10:34:22;29.10;46.70
31379;DHT22;61664;48.112;11.662;2023-07-20T10:36:49;29.40;46.60
31379;DHT22;61664;48.112;11.662;2023-07-20T10:39:24;29.50;45.70
31379;DHT22;61664;48.112;11.662;2023-07-20T10:42:07;29.60;43.90
31379;DHT22;61664;48.112;11.662;2023-07-20T10:44:36;29.50;45.00
31379;DHT22;61664;48.112;11.662;2023-07-20T10:47:13;29.50;47.10
31379;DHT22;61664;48.112;11.662;2023-07-20T10:50:13;29.30;44.00
31379;DHT22;61664;48.112;11.662;2023-07-20T10:52:40;29.20;45.20
31379;DHT22;61664;48.112;11.662;2023-07-20T10:55:14;29.30;46.30
31379;DHT22;61664;48.112;11.662;2023-07-20T10:57:42;29.40;45.20
31379;DHT22;61664;48.112;11.662;2023-07-20T11:00:13;29.80;47.20
31379;DHT22;61664;48.112;11.662;2023-07-20T11:02:48;30.10;45.50
31379;DHT22;61664;48.112;11.662;2023-07-20T11:05:38;30.40;42.60
31379;DHT22;61664;48.112;11.662;2023-07-20T11:08:11;30.50;42.90
31379;DHT22;61664;48.112;11.662;2023-07-20T11:10:39;30.40;43.00
31379;DHT22;61664;48.112;11.662;2023-07-20T11:13:25;30.40;43.90
31379;DHT22;61664;48.112;11.662;2023-07-20T11:18:28;30.10;41.70
31379;DHT22;61664;48.112;11.662;2023-07-20T11:20:58;30.00;42.20
31379;DHT22;61664;48.112;11.662;2023-07-20T11:23:25;30.00;43.50
31379;DHT22;61664;48.112;11.662;2023-07-20T11:25:52;30.00;43.20
31379;DHT22;61664;48.112;11.662;2023-07-20T11:28:19;30.00;43.30
31379;DHT22;61664;48.112;11.662;2023-07-20T11:30:52;30.00;43.50
31379;DHT22;61664;48.112;11.662;2023-07-20T11:33:21;30.00;41.80
31379;DHT22;61664;48.112;11.662;2023-07-20T11:35:49;30.00;43.30
31379;DHT22;61664;48.112;11.662;2023-07-20T11:38:19;29.90;43.10
31379;DHT22;61664;48.112;11.662;2023-07-20T11:40:46;29.90;43.40
31379;DHT22;61664;48.112;11.662;2023-07-20T11:43:14;29.90;43.20
31379;DHT22;61664;48.112;11.662;2023-07-20T11:46:01;29.80;43.10
31379;DHT22;61664;48.112;11.662;2023-07-20T11:48:28;29.70;43.00
31379;DHT22;61664;48.112;11.662;2023-07-20T11:50:55;29.60;42.90
31379;DHT22;61664;48.112;11.662;2023-07-20T11:53:24;29.60;43.20
31379;DHT22;61664;48.112;11.662;2023-07-20T11:55:52;29.50;42.20
31379;DHT22;61664;48.112;11.662;2023-07-20T11:58:20;29.50;43.30
31379;DHT22;61664;48.112;11.662;2023-07-20T12:00:48;29.50;43.10
31379;DHT22;61664;48.112;11.662;2023-07-20T12:03:15;29.40;43.10
31379;DHT22;61664;48.112;11.662;2023-07-20T12:05:42;29.40;43.30
31379;DHT22;61664;48.112;11.662;2023-07-20T12:08:26;29.30;43.00
31379;DHT22;61664;48.112;11.662;2023-07-20T12:10:54;29.30;43.10
31379;DHT22;61664;48.112;11.662;2023-07-20T12:13:20;29.20;43.20
31379;DHT22;61664;48.112;11.662;2023-07-20T12:15:47;29.20;43.40
31379;DHT22;61664;48.112;11.662;2023-07-20T12:18:14;29.20;43.00
31379;DHT22;61664;48.112;11.662;2023-07-20T12:20:42;29.20;42.50
31379;DHT22;61664;48.112;11.662;2023-07-20T12:23:11;29.20;41.80
31379;DHT22;61664;48.112;11.662;2023-07-20T12:25:44;29.20;42.00
31379;DHT22;61664;48.112;11.662;2023-07-20T12:28:14;29.10;41.10
31379;DHT22;61664;48.112;11.662;2023-07-20T12:30:45;29.10;42.10
31379;DHT22;61664;48.112;11.662;2023-07-20T12:33:13;29.10;42.80
31379;DHT22;61664;48.112;11.662;2023-07-20T12:35:44;29.00;41.40
31379;DHT22;61664;48.112;11.662;2023-07-20T12:38:11;29.00;42.20
31379;DHT22;61664;48.112;11.662;2023-07-20T12:40:38;28.90;41.80
31379;DHT22;61664;48.112;11.662;2023-07-20T12:43:05;28.90;42.70
31379;DHT22;61664;48.112;11.662;2023-07-20T12:45:33;28.90;43.00
31379;DHT22;61664;48.112;11.662;2023-07-20T12:48:00;29.00;43.00
31379;DHT22;61664;48.112;11.662;2023-07-20T12:50:27;29.10;43.10
31379;DHT22;61664;48.112;11.662;2023-07-20T12:52:54;29.20;42.80
31379;DHT22;61664;48.112;11.662;2023-07-20T12:55:21;29.30;42.70
31379;DHT22;61664;48.112;11.662;2023-07-20T12:57:48;29.30;43.00
31379;DHT22;61664;48.112;11.662;2023-07-20T13:00:15;29.40;43.00
31379;DHT22;61664;48.112;11.662;2023-07-20T13:02:43;29.50;43.00
31379;DHT22;61664;48.112;11.662;2023-07-20T13:05:10;29.60;42.20
31379;DHT22;61664;48.112;11.662;2023-07-20T13:07:38;29.70;41.80
31379;DHT22;61664;48.112;11.662;2023-07-20T13:10:10;29.70;42.10
31379;DHT22;61664;48.112;11.662;2023-07-20T13:12:38;29.70;41.90
31379;DHT22;61664;48.112;11.662;2023-07-20T13:15:07;29.80;41.70
31379;DHT22;61664;48.112;11.662;2023-07-20T13:17:36;29.80;41.00
31379;DHT22;61664;48.112;11.662;2023-07-20T13:20:06;29.80;41.20
31379;DHT22;61664;48.112;11.662;2023-07-20T13:22:37;29.90;43.00
31379;DHT22;61664;48.112;11.662;2023-07-20T13:25:05;30.00;42.70
31379;DHT22;61664;48.112;11.662;2023-07-20T13:27:34;30.00;42.40
31379;DHT22;61664;48.112;11.662;2023-07-20T13:30:01;30.20;42.40
31379;DHT22;61664;48.112;11.662;2023-07-20T13:32:35;30.30;41.60
31379;DHT22;61664;48.112;11.662;2023-07-20T13:35:03;30.50;42.00
31379;DHT22;61664;48.112;11.662;2023-07-20T13:37:30;30.60;42.50
31379;DHT22;61664;48.112;11.662;2023-07-20T13:39:57;30.80;42.30
31379;DHT22;61664;48.112;11.662;2023-07-20T13:42:24;31.00;42.00
31379;DHT22;61664;48.112;11.662;2023-07-20T13:44:51;31.30;42.30
31379;DHT22;61664;48.112;11.662;2023-07-20T13:47:18;31.60;42.50
31379;DHT22;61664;48.112;11.662;2023-07-20T13:49:48;32.00;42.00
31379;DHT22;61664;48.112;11.662;2023-07-20T13:52:28;32.30;40.60
31379;DHT22;61664;48.112;11.662;2023-07-20T13:54:58;32.50;40.90
31379;DHT22;61664;48.112;11.662;2023-07-20T13:57:26;32.70;40.60
31379;DHT22;61664;48.112;11.662;2023-07-20T13:59:53;32.80;39.50
31379;DHT22;61664;48.112;11.662;2023-07-20T14:02:20;32.90;39.10
31379;DHT22;61664;48.112;11.662;2023-07-20T14:04:50;32.90;39.80
31379;DHT22;61664;48.112;11.662;2023-07-20T14:07:37;33.10;40.30
31379;DHT22;61664;48.112;11.662;2023-07-20T14:10:04;33.20;39.60
31379;DHT22;61664;48.112;11.662;2023-07-20T14:12:34;33.20;39.10
31379;DHT22;61664;48.112;11.662;2023-07-20T14:15:02;33.40;39.20
31379;DHT22;61664;48.112;11.662;2023-07-20T14:17:31;33.40;38.60
31379;DHT22;61664;48.112;11.662;2023-07-20T14:19:58;33.60;38.50
31379;DHT22;61664;48.112;11.662;2023-07-20T14:22:25;33.60;38.50
31379;DHT22;61664;48.112;11.662;2023-07-20T14:24:53;33.80;38.30
31379;DHT22;61664;48.112;11.662;2023-07-20T14:27:20;33.90;38.20
31379;DHT22;61664;48.112;11.662;2023-07-20T14:29:47;34.10;37.70
31379;DHT22;61664;48.112;11.662;2023-07-20T14:32:15;34.10;36.90
31379;DHT22;61664;48.112;11.662;2023-07-20T14:34:41;34.10;36.80
31379;DHT22;61664;48.112;11.662;2023-07-20T14:37:09;34.10;36.90
31379;DHT22;61664;48.112;11.662;2023-07-20T14:39:36;34.00;36.10
31379;DHT22;61664;48.112;11.662;2023-07-20T14:42:03;34.00;36.00
31379;DHT22;61664;48.112;11.662;2023-07-20T14:44:30;33.90;35.50
31379;DHT22;61664;48.112;11.662;2023-07-20T14:46:59;33.70;35.10
31379;DHT22;61664;48.112;11.662;2023-07-20T14:49:40;33.60;35.30
31379;DHT22;61664;48.112;11.662;2023-07-20T14:52:07;33.50;35.70
31379;DHT22;61664;48.112;11.662;2023-07-20T14:54:37;33.50;36.00
31379;DHT22;61664;48.112;11.662;2023-07-20T14:57:04;33.60;36.10
31379;DHT22;61664;48.112;11.662;2023-07-20T14:59:34;33.80;36.10
31379;DHT22;61664;48.112;11.662;2023-07-20T15:02:01;34.00;36.50
31379;DHT22;61664;48.112;11.662;2023-07-20T15:04:28;34.20;35.90
31379;DHT22;61664;48.112;11.662;2023-07-20T15:06:55;34.40;35.90
31379;DHT22;61664;48.112;11.662;2023-07-20T15:09:22;34.60;35.80
31379;DHT22;61664;48.112;11.662;2023-07-20T15:11:49;34.80;35.90
31379;DHT22;61664;48.112;11.662;2023-07-20T15:14:16;35.10;35.90
31379;DHT22;61664;48.112;11.662;2023-07-20T15:16:43;35.40;36.00
31379;DHT22;61664;48.112;11.662;2023-07-20T15:19:13;35.70;35.80
31379;DHT22;61664;48.112;11.662;2023-07-20T15:21:40;36.10;35.70
31379;DHT22;61664;48.112;11.662;2023-07-20T15:24:07;36.30;35.70
31379;DHT22;61664;48.112;11.662;2023-07-20T15:26:34;36.60;35.40
31379;DHT22;61664;48.112;11.662;2023-07-20T15:29:01;36.90;35.50
31379;DHT22;61664;48.112;11.662;2023-07-20T15:31:28;37.10;34.90
31379;DHT22;61664;48.112;11.662;2023-07-20T15:33:58;37.40;34.20
31379;DHT22;61664;48.112;11.662;2023-07-20T15:36:25;37.50;33.80